sensor_id;sensor_type;location;lat;lon;timestamp;P1;durP1;ratioP1;P2;durP2;ratioP2
30850;SDS011;17567;48.382;9.102;2023-08-21T00:04:47;8.73;;;6.15;;
30850;SDS011;17567;48.382;9.102;2023-08-21T00:09:47;7.80;;;5.70;;
30850;SDS011;17567;48.382;9.102;2023-08-21T00:14:48;6.50;;;5.82;;
30850;SDS011;17567;48.382;9.102;2023-08-21T00:19:49;7.18;;;5.60;;
30850;SDS011;17567;48.382;9.102;2023-08-21T00:24:49;6.22;;;5.70;;
30850;SDS011;17567;48.382;9.102;2023-08-21T00:29:50;11.50;;;6.55;;
30850;SDS011;17567;48.382;9.102;2023-08-21T00:34:51;9.50;;;5.82;;
30850;SDS011;17567;48.382;9.102;2023-08-21T00:39:51;7.93;;;5.90;;
30850;SDS011;17567;48.382;9.102;2023-08-21T00:44:52;7.10;;;6.32;;
30850;SDS011;17567;48.382;9.102;2023-08-21T00:49:53;6.95;;;6.15;;
30850;SDS011;17567;48.382;9.102;2023-08-21T00:54:54;8.80;;;6.00;;
30850;SDS011;17567;48.382;9.102;2023-08-21T00:59:55;8.32;;;6.28;;
30850;SDS011;17567;48.382;9.102;2023-08-21T01:04:56;6.57;;;5.97;;
30850;SDS011;17567;48.382;9.102;2023-08-21T01:15:04;9.43;;;6.95;;
30850;SDS011;17567;48.382;9.102;2023-08-21T01:20:07;9.32;;;6.65;;
30850;SDS011;17567;48.382;9.102;2023-08-21T01:25:09;10.82;;;7.07;;
30850;SDS011;17567;48.382;9.102;2023-08-21T01:30:11;8.95;;;6.68;;
30850;SDS011;17567;48.382;9.102;2023-08-21T01:35:12;8.50;;;7.47;;
30850;SDS011;17567;48.382;9.102;2023-08-21T01:40:19;8.68;;;6.57;;
30850;SDS011;17567;48.382;9.102;2023-08-21T01:45:21;7.55;;;6.78;;
30850;SDS011;17567;48.382;9.102;2023-08-21T01:50:22;9.63;;;6.47;;
30850;SDS011;17567;48.382;9.102;2023-08-21T01:55:23;8.20;;;6.60;;
30850;SDS011;17567;48.382;9.102;2023-08-21T02:00:24;7.05;;;6.35;;
30850;SDS011;17567;48.382;9.102;2023-08-21T02:05:24;7.72;;;7.00;;
30850;SDS011;17567;48.382;9.102;2023-08-21T02:10:25;8.68;;;7.82;;
30850;SDS011;17567;48.382;9.102;2023-08-21T02:15:26;8.57;;;6.55;;
30850;SDS011;17567;48.382;9.102;2023-08-21T02:20:26;7.67;;;6.50;;
30850;SDS011;17567;48.382;9.102;2023-08-21T02:25:27;9.13;;;5.78;;
30850;SDS011;17567;48.382;9.102;2023-08-21T02:30:29;7.07;;;6.50;;
30850;SDS011;17567;48.382;9.102;2023-08-21T02:35:30;8.20;;;7.50;;
30850;SDS011;17567;48.382;9.102;2023-08-21T02:40:32;7.78;;;6.68;;
30850;SDS011;17567;48.382;9.102;2023-08-21T02:45:38;12.57;;;7.60;;
30850;SDS011;17567;48.382;9.102;2023-08-21T02:50:39;13.83;;;7.60;;
30850;SDS011;17567;48.382;9.102;2023-08-21T02:55:41;8.40;;;6.75;;
30850;SDS011;17567;48.382;9.102;2023-08-21T03:00:42;10.55;;;7.13;;
30850;SDS011;17567;48.382;9.102;2023-08-21T03:05:43;9.63;;;8.23;;
30850;SDS011;17567;48.382;9.102;2023-08-21T03:10:43;9.43;;;6.50;;
30850;SDS011;17567;48.382;9.102;2023-08-21T03:15:44;10.17;;;8.30;;
30850;SDS011;17567;48.382;9.102;2023-08-21T03:20:45;13.87;;;8.20;;
30850;SDS011;17567;48.382;9.102;2023-08-21T03:25:46;8.03;;;7.23;;
30850;SDS011;17567;48.382;9.102;2023-08-21T03:30:47;12.40;;;8.37;;
30850;SDS011;17567;48.382;9.102;2023-08-21T03:35:52;11.33;;;7.27;;
30850;SDS011;17567;48.382;9.102;2023-08-21T03:40:54;11.17;;;7.20;;
30850;SDS011;17567;48.382;9.102;2023-08-21T03:45:55;10.97;;;6.97;;
30850;SDS011;17567;48.382;9.102;2023-08-21T03:50:56;9.07;;;7.07;;
30850;SDS011;17567;48.382;9.102;2023-08-21T03:55:56;7.97;;;7.27;;
30850;SDS011;17567;48.382;9.102;2023-08-21T04:00:57;7.17;;;6.50;;
30850;SDS011;17567;48.382;9.102;2023-08-21T04:05:58;8.10;;;6.87;;
30850;SDS011;17567;48.382;9.102;2023-08-21T04:10:59;9.23;;;7.47;;
30850;SDS011;17567;48.382;9.102;2023-08-21T04:16:00;11.00;;;9.10;;
30850;SDS011;17567;48.382;9.102;2023-08-21T04:21:01;10.63;;;9.10;;
30850;SDS011;17567;48.382;9.102;2023-08-21T04:26:04;13.60;;;9.27;;
30850;SDS011;17567;48.382;9.102;2023-08-21T04:31:05;8.90;;;7.90;;
30850;SDS011;17567;48.382;9.102;2023-08-21T04:36:07;11.93;;;8.57;;
30850;SDS011;17567;48.382;9.102;2023-08-21T04:41:08;9.93;;;7.30;;
30850;SDS011;17567;48.382;9.102;2023-08-21T04:46:09;10.97;;;7.77;;
30850;SDS011;17567;48.382;9.102;2023-08-21T04:51:10;7.70;;;7.00;;
30850;SDS011;17567;48.382;9.102;2023-08-21T04:56:11;8.97;;;7.97;;
30850;SDS011;17567;48.382;9.102;2023-08-21T05:01:11;7.70;;;7.00;;
30850;SDS011;17567;48.382;9.102;2023-08-21T05:06:12;10.17;;;8.10;;
30850;SDS011;17567;48.382;9.102;2023-08-21T05:11:12;9.50;;;8.13;;
30850;SDS011;17567;48.382;9.102;2023-08-21T05:16:13;9.77;;;7.70;;
30850;SDS011;17567;48.382;9.102;2023-08-21T05:21:14;10.73;;;9.20;;
30850;SDS011;17567;48.382;9.102;2023-08-21T05:26:14;10.47;;;7.93;;
30850;SDS011;17567;48.382;9.102;2023-08-21T05:31:15;7.77;;;7.10;;
30850;SDS011;17567;48.382;9.102;2023-08-21T05:36:16;8.23;;;7.33;;
30850;SDS011;17567;48.382;9.102;2023-08-21T05:41:16;10.37;;;7.77;;
30850;SDS011;17567;48.382;9.102;2023-08-21T05:46:17;8.00;;;7.30;;
30850;SDS011;17567;48.382;9.102;2023-08-21T05:51:18;9.10;;;7.40;;
30850;SDS011;17567;48.382;9.102;2023-08-21T05:56:19;8.80;;;7.97;;
30850;SDS011;17567;48.382;9.102;2023-08-21T06:01:19;9.87;;;8.20;;
30850;SDS011;17567;48.382;9.102;2023-08-21T06:06:20;12.43;;;7.87;;
30850;SDS011;17567;48.382;9.102;2023-08-21T06:11:21;9.50;;;8.45;;
30850;SDS011;17567;48.382;9.102;2023-08-21T06:16:21;9.00;;;8.13;;
30850;SDS011;17567;48.382;9.102;2023-08-21T06:21:22;10.80;;;8.63;;
30850;SDS011;17567;48.382;9.102;2023-08-21T06:26:23;10.73;;;9.63;;
30850;SDS011;17567;48.382;9.102;2023-08-21T06:31:23;12.40;;;8.30;;
30850;SDS011;17567;48.382;9.102;2023-08-21T06:36:24;8.73;;;7.93;;
30850;SDS011;17567;48.382;9.102;2023-08-21T06:41:25;11.10;;;9.13;;
30850;SDS011;17567;48.382;9.102;2023-08-21T06:46:25;10.15;;;8.65;;
30850;SDS011;17567;48.382;9.102;2023-08-21T06:51:26;16.67;;;8.93;;
30850;SDS011;17567;48.382;9.102;2023-08-21T06:56:27;9.43;;;8.48;;
30850;SDS011;17567;48.382;9.102;2023-08-21T07:01:28;9.13;;;8.23;;
30850;SDS011;17567;48.382;9.102;2023-08-21T07:06:30;10.40;;;9.40;;
30850;SDS011;17567;48.382;9.102;2023-08-21T07:11:31;12.23;;;8.60;;
30850;SDS011;17567;48.382;9.102;2023-08-21T07:16:31;13.23;;;8.95;;
30850;SDS011;17567;48.382;9.102;2023-08-21T07:21:32;13.13;;;10.10;;
30850;SDS011;17567;48.382;9.102;2023-08-21T07:26:35;10.68;;;9.00;;
30850;SDS011;17567;48.382;9.102;2023-08-21T07:31:38;9.90;;;8.90;;
30850;SDS011;17567;48.382;9.102;2023-08-21T07:36:38;12.15;;;8.90;;
30850;SDS011;17567;48.382;9.102;2023-08-21T07:41:39;10.57;;;8.48;;
30850;SDS011;17567;48.382;9.102;2023-08-21T07:46:40;11.18;;;8.77;;
30850;SDS011;17567;48.382;9.102;2023-08-21T07:51:40;9.90;;;9.00;;
30850;SDS011;17567;48.382;9.102;2023-08-21T07:56:41;11.38;;;8.45;;
30850;SDS011;17567;48.382;9.102;2023-08-21T08:01:42;9.75;;;8.65;;
30850;SDS011;17567;48.382;9.102;2023-08-21T08:06:42;9.85;;;8.85;;
30850;SDS011;17567;48.382;9.102;2023-08-21T08:11:43;9.57;;;8.68;;
30850;SDS011;17567;48.382;9.102;2023-08-21T08:16:44;10.15;;;8.48;;
30850;SDS011;17567;48.382;9.102;2023-08-21T08:21:50;11.13;;;8.95;;
30850;SDS011;17567;48.382;9.102;2023-08-21T08:26:53;9.35;;;8.25;;
30850;SDS011;17567;48.382;9.102;2023-08-21T08:31:56;10.73;;;8.35;;
30850;SDS011;17567;48.382;9.102;2023-08-21T08:36:57;11.35;;;8.70;;
30850;SDS011;17567;48.382;9.102;2023-08-21T08:41:58;8.82;;;8.02;;
30850;SDS011;17567;48.382;9.102;2023-08-21T08:47:02;8.48;;;7.72;;
30850;SDS011;17567;48.382;9.102;2023-08-21T08:52:04;13.85;;;8.75;;
30850;SDS011;17567;48.382;9.102;2023-08-21T08:57:08;9.23;;;8.32;;
30850;SDS011;17567;48.382;9.102;2023-08-21T09:02:09;10.88;;;8.52;;
30850;SDS011;17567;48.382;9.102;2023-08-21T09:07:10;9.32;;;7.50;;
30850;SDS011;17567;48.382;9.102;2023-08-21T09:12:12;10.55;;;8.30;;
30850;SDS011;17567;48.382;9.102;2023-08-21T09:17:13;10.15;;;7.90;;
30850;SDS011;17567;48.382;9.102;2023-08-21T09:22:15;8.98;;;8.10;;
30850;SDS011;17567;48.382;9.102;2023-08-21T09:27:18;9.48;;;7.55;;
30850;SDS011;17567;48.382;9.102;2023-08-21T09:32:19;10.48;;;7.45;;
30850;SDS011;17567;48.382;9.102;2023-08-21T09:37:20;9.25;;;7.22;;
30850;SDS011;17567;48.382;9.102;2023-08-21T09:42:21;9.95;;;7.20;;
30850;SDS011;17567;48.382;9.102;2023-08-21T09:47:24;8.90;;;7.18;;
30850;SDS011;17567;48.382;9.102;2023-08-21T09:52:26;6.70;;;6.20;;
30850;SDS011;17567;48.382;9.102;2023-08-21T09:57:27;7.05;;;6.32;;
30850;SDS011;17567;48.382;9.102;2023-08-21T10:02:28;9.82;;;6.35;;
30850;SDS011;17567;48.382;9.102;2023-08-21T10:07:30;7.22;;;6.28;;
30850;SDS011;17567;48.382;9.102;2023-08-21T10:12:32;6.93;;;6.35;;
30850;SDS011;17567;48.382;9.102;2023-08-21T10:17:33;9.77;;;6.55;;
30850;SDS011;17567;48.382;9.102;2023-08-21T10:22:48;9.25;;;6.43;;
30850;SDS011;17567;48.382;9.102;2023-08-21T10:27:52;7.05;;;5.97;;
30850;SDS011;17567;48.382;9.102;2023-08-21T10:32:58;15.35;;;6.68;;
30850;SDS011;17567;48.382;9.102;2023-08-21T10:38:15;7.47;;;6.78;;
30850;SDS011;17567;48.382;9.102;2023-08-21T10:48:37;8.82;;;5.80;;
30850;SDS011;17567;48.382;9.102;2023-08-21T10:53:39;9.20;;;6.32;;
30850;SDS011;17567;48.382;9.102;2023-08-21T10:58:43;6.90;;;6.30;;
30850;SDS011;17567;48.382;9.102;2023-08-21T11:03:54;6.78;;;6.20;;
30850;SDS011;17567;48.382;9.102;2023-08-21T11:08:58;6.22;;;5.68;;
30850;SDS011;17567;48.382;9.102;2023-08-21T11:13:59;7.35;;;5.70;;
30850;SDS011;17567;48.382;9.102;2023-08-21T11:19:04;6.55;;;5.88;;
30850;SDS011;17567;48.382;9.102;2023-08-21T11:24:08;6.28;;;5.47;;
30850;SDS011;17567;48.382;9.102;2023-08-21T11:29:09;7.68;;;6.13;;
30850;SDS011;17567;48.382;9.102;2023-08-21T11:34:10;8.18;;;5.75;;
30850;SDS011;17567;48.382;9.102;2023-08-21T11:39:11;9.00;;;6.15;;
30850;SDS011;17567;48.382;9.102;2023-08-21T11:44:12;11.40;;;5.75;;
30850;SDS011;17567;48.382;9.102;2023-08-21T11:49:15;7.32;;;5.90;;
30850;SDS011;17567;48.382;9.102;2023-08-21T11:54:18;9.40;;;6.43;;
30850;SDS011;17567;48.382;9.102;2023-08-21T11:59:22;6.10;;;5.50;;
30850;SDS011;17567;48.382;9.102;2023-08-21T12:04:24;10.70;;;5.93;;
30850;SDS011;17567;48.382;9.102;2023-08-21T12:09:25;5.93;;;5.35;;
30850;SDS011;17567;48.382;9.102;2023-08-21T12:14:27;7.30;;;5.55;;
30850;SDS011;17567;48.382;9.102;2023-08-21T12:19:28;6.57;;;5.88;;
30850;SDS011;17567;48.382;9.102;2023-08-21T12:24:29;5.93;;;5.30;;
30850;SDS011;17567;48.382;9.102;2023-08-21T12:29:30;7.97;;;5.32;;
30850;SDS011;17567;48.382;9.102;2023-08-21T12:34:34;7.13;;;5.25;;
30850;SDS011;17567;48.382;9.102;2023-08-21T12:39:36;9.27;;;5.57;;
30850;SDS011;17567;48.382;9.102;2023-08-21T12:44:37;8.98;;;5.50;;
30850;SDS011;17567;48.382;9.102;2023-08-21T12:49:38;12.05;;;5.32;;
30850;SDS011;17567;48.382;9.102;2023-08-21T12:54:39;7.53;;;5.47;;
30850;SDS011;17567;48.382;9.102;2023-08-21T12:59:40;5.72;;;5.20;;
30850;SDS011;17567;48.382;9.102;2023-08-21T13:04:41;7.90;;;6.10;;
30850;SDS011;17567;48.382;9.102;2023-08-21T13:09:42;7.25;;;5.13;;
30850;SDS011;17567;48.382;9.102;2023-08-21T13:14:45;8.48;;;4.97;;
30850;SDS011;17567;48.382;9.102;2023-08-21T13:19:48;6.63;;;5.18;;
30850;SDS011;17567;48.382;9.102;2023-08-21T13:24:49;6.20;;;5.35;;
30850;SDS011;17567;48.382;9.102;2023-08-21T13:29:50;7.28;;;4.95;;
30850;SDS011;17567;48.382;9.102;2023-08-21T13:34:51;5.85;;;4.80;;
30850;SDS011;17567;48.382;9.102;2023-08-21T13:39:52;9.77;;;4.93;;
30850;SDS011;17567;48.382;9.102;2023-08-21T13:44:55;6.65;;;4.72;;
30850;SDS011;17567;48.382;9.102;2023-08-21T13:49:56;4.85;;;4.32;;
30850;SDS011;17567;48.382;9.102;2023-08-21T13:54:57;4.47;;;4.07;;
30850;SDS011;17567;48.382;9.102;2023-08-21T14:00:01;6.57;;;4.32;;
30850;SDS011;17567;48.382;9.102;2023-08-21T14:05:07;4.75;;;3.95;;
30850;SDS011;17567;48.382;9.102;2023-08-21T14:10:08;6.32;;;4.03;;
30850;SDS011;17567;48.382;9.102;2023-08-21T14:15:10;5.25;;;3.97;;
30850;SDS011;17567;48.382;9.102;2023-08-21T14:20:11;5.15;;;4.40;;
30850;SDS011;17567;48.382;9.102;2023-08-21T14:25:12;10.02;;;4.20;;
30850;SDS011;17567;48.382;9.102;2023-08-21T14:30:15;4.40;;;3.97;;
30850;SDS011;17567;48.382;9.102;2023-08-21T14:35:16;12.73;;;4.97;;
30850;SDS011;17567;48.382;9.102;2023-08-21T14:40:17;7.53;;;3.78;;
30850;SDS011;17567;48.382;9.102;2023-08-21T14:45:18;4.85;;;4.20;;
30850;SDS011;17567;48.382;9.102;2023-08-21T14:50:22;6.15;;;4.00;;
30850;SDS011;17567;48.382;9.102;2023-08-21T14:55:26;4.63;;;3.80;;
30850;SDS011;17567;48.382;9.102;2023-08-21T15:00:27;6.97;;;3.90;;
30850;SDS011;17567;48.382;9.102;2023-08-21T15:05:28;5.00;;;4.35;;
30850;SDS011;17567;48.382;9.102;2023-08-21T15:10:29;5.53;;;3.83;;
30850;SDS011;17567;48.382;9.102;2023-08-21T15:15:30;5.13;;;3.85;;
30850;SDS011;17567;48.382;9.102;2023-08-21T15:20:31;7.57;;;3.80;;
30850;SDS011;17567;48.382;9.102;2023-08-21T15:25:35;4.22;;;3.67;;
30850;SDS011;17567;48.382;9.102;2023-08-21T15:30:36;5.32;;;3.88;;
30850;SDS011;17567;48.382;9.102;2023-08-21T15:35:37;4.65;;;3.45;;
30850;SDS011;17567;48.382;9.102;2023-08-21T15:40:38;7.55;;;4.28;;
30850;SDS011;17567;48.382;9.102;2023-08-21T15:45:39;5.30;;;3.50;;
30850;SDS011;17567;48.382;9.102;2023-08-21T15:50:40;4.10;;;3.53;;
30850;SDS011;17567;48.382;9.102;2023-08-21T15:55:41;4.60;;;3.38;;
30850;SDS011;17567;48.382;9.102;2023-08-21T16:00:42;6.45;;;3.83;;
30850;SDS011;17567;48.382;9.102;2023-08-21T16:05:43;10.60;;;4.03;;
30850;SDS011;17567;48.382;9.102;2023-08-21T16:10:44;5.30;;;3.75;;
30850;SDS011;17567;48.382;9.102;2023-08-21T16:15:48;9.00;;;3.55;;
30850;SDS011;17567;48.382;9.102;2023-08-21T16:20:49;9.98;;;3.95;;
30850;SDS011;17567;48.382;9.102;2023-08-21T16:25:50;4.72;;;3.65;;
30850;SDS011;17567;48.382;9.102;2023-08-21T16:30:51;6.13;;;4.20;;
30850;SDS011;17567;48.382;9.102;2023-08-21T16:35:52;4.03;;;3.72;;
30850;SDS011;17567;48.382;9.102;2023-08-21T16:40:56;6.20;;;4.07;;
30850;SDS011;17567;48.382;9.102;2023-08-21T16:45:57;6.32;;;4.35;;
30850;SDS011;17567;48.382;9.102;2023-08-21T16:50:58;7.13;;;4.80;;
